sensor_id;sensor_type;location;lat;lon;timestamp;temperature;humidity
68276;DHT22;55106;51.438;-0.098;2022-09-16T00:02:09;13.70;70.83
68276;DHT22;55106;51.438;-0.098;2022-09-16T00:04:35;13.71;71.31
68276;DHT22;55106;51.438;-0.098;2022-09-16T00:07:00;13.77;70.24
68276;DHT22;55106;51.438;-0.098;2022-09-16T00:09:26;13.75;70.50
68276;DHT22;55106;51.438;-0.098;2022-09-16T00:11:51;13.74;70.28
68276;DHT22;55106;51.438;-0.098;2022-09-16T00:14:16;13.74;70.44
68276;DHT22;55106;51.438;-0.098;2022-09-16T00:16:42;13.67;71.60
68276;DHT22;55106;51.438;-0.098;2022-09-16T00:19:07;13.67;70.53
68276;DHT22;55106;51.438;-0.098;2022-09-16T00:21:33;13.66;71.17
68276;DHT22;55106;51.438;-0.098;2022-09-16T00:23:58;13.60;70.42
68276;DHT22;55106;51.438;-0.098;2022-09-16T00:26:24;13.62;70.36
68276;DHT22;55106;51.438;-0.098;2022-09-16T00:28:50;13.60;71.00
68276;DHT22;55106;51.438;-0.098;2022-09-16T00:31:16;13.60;70.34
68276;DHT22;55106;51.438;-0.098;2022-09-16T00:33:42;13.59;71.04
68276;DHT22;55106;51.438;-0.098;2022-09-16T00:36:13;13.54;71.59
68276;DHT22;55106;51.438;-0.098;2022-09-16T00:38:39;13.57;70.44
68276;DHT22;55106;51.438;-0.098;2022-09-16T00:41:05;13.56;70.41
68276;DHT22;55106;51.438;-0.098;2022-09-16T00:43:57;13.52;71.86
68276;DHT22;55106;51.438;-0.098;2022-09-16T00:46:28;13.47;70.70
68276;DHT22;55106;51.438;-0.098;2022-09-16T00:48:55;13.47;71.46
68276;DHT22;55106;51.438;-0.098;2022-09-16T00:51:21;13.42;72.07
68276;DHT22;55106;51.438;-0.098;2022-09-16T00:53:54;13.40;71.58
68276;DHT22;55106;51.438;-0.098;2022-09-16T00:56:23;13.42;72.47
68276;DHT22;55106;51.438;-0.098;2022-09-16T00:59:08;13.35;73.05
68276;DHT22;55106;51.438;-0.098;2022-09-16T01:01:36;13.33;71.64
68276;DHT22;55106;51.438;-0.098;2022-09-16T01:04:10;13.35;71.66
68276;DHT22;55106;51.438;-0.098;2022-09-16T01:06:38;13.32;72.09
68276;DHT22;55106;51.438;-0.098;2022-09-16T01:09:04;13.30;72.56
68276;DHT22;55106;51.438;-0.098;2022-09-16T01:11:30;13.27;72.68
68276;DHT22;55106;51.438;-0.098;2022-09-16T01:13:55;13.23;72.42
68276;DHT22;55106;51.438;-0.098;2022-09-16T01:16:45;13.20;73.11
68276;DHT22;55106;51.438;-0.098;2022-09-16T01:24:50;13.15;72.46
68276;DHT22;55106;51.438;-0.098;2022-09-16T01:30:06;13.09;73.75
68276;DHT22;55106;51.438;-0.098;2022-09-16T01:33:07;13.08;73.40
68276;DHT22;55106;51.438;-0.098;2022-09-16T01:35:58;13.11;73.10
68276;DHT22;55106;51.438;-0.098;2022-09-16T01:41:08;13.05;74.16
68276;DHT22;55106;51.438;-0.098;2022-09-16T01:46:41;12.99;74.21
68276;DHT22;55106;51.438;-0.098;2022-09-16T01:49:22;12.92;75.12
68276;DHT22;55106;51.438;-0.098;2022-09-16T01:55:00;12.67;75.71
68276;DHT22;55106;51.438;-0.098;2022-09-16T02:00:02;12.60;75.75
68276;DHT22;55106;51.438;-0.098;2022-09-16T02:02:34;12.48;76.31
68276;DHT22;55106;51.438;-0.098;2022-09-16T02:05:06;12.36;77.63
68276;DHT22;55106;51.438;-0.098;2022-09-16T02:07:37;12.22;78.05
68276;DHT22;55106;51.438;-0.098;2022-09-16T02:10:26;12.12;77.95
68276;DHT22;55106;51.438;-0.098;2022-09-16T02:12:57;12.12;77.60
68276;DHT22;55106;51.438;-0.098;2022-09-16T02:15:25;12.05;78.43
68276;DHT22;55106;51.438;-0.098;2022-09-16T02:17:56;11.93;78.92
68276;DHT22;55106;51.438;-0.098;2022-09-16T02:20:26;11.92;78.87
68276;DHT22;55106;51.438;-0.098;2022-09-16T02:23:19;11.89;79.10
68276;DHT22;55106;51.438;-0.098;2022-09-16T02:25:47;11.83;79.55
68276;DHT22;55106;51.438;-0.098;2022-09-16T02:28:21;11.81;79.62
68276;DHT22;55106;51.438;-0.098;2022-09-16T02:30:51;11.85;79.69
68276;DHT22;55106;51.438;-0.098;2022-09-16T02:33:18;11.78;79.85
68276;DHT22;55106;51.438;-0.098;2022-09-16T02:35:47;11.79;80.54
68276;DHT22;55106;51.438;-0.098;2022-09-16T02:38:22;11.68;80.91
68276;DHT22;55106;51.438;-0.098;2022-09-16T02:40:58;11.60;81.34
68276;DHT22;55106;51.438;-0.098;2022-09-16T02:43:25;11.58;81.55
68276;DHT22;55106;51.438;-0.098;2022-09-16T02:56:39;11.48;81.84
68276;DHT22;55106;51.438;-0.098;2022-09-16T02:59:07;11.48;82.57
68276;DHT22;55106;51.438;-0.098;2022-09-16T03:01:39;11.44;82.65
68276;DHT22;55106;51.438;-0.098;2022-09-16T03:04:06;11.40;83.45
68276;DHT22;55106;51.438;-0.098;2022-09-16T03:06:32;11.41;82.58
68276;DHT22;55106;51.438;-0.098;2022-09-16T03:09:02;11.48;82.13
68276;DHT22;55106;51.438;-0.098;2022-09-16T03:22:14;11.35;83.56
68276;DHT22;55106;51.438;-0.098;2022-09-16T03:25:04;11.35;84.16
68276;DHT22;55106;51.438;-0.098;2022-09-16T03:27:37;11.40;83.27
68276;DHT22;55106;51.438;-0.098;2022-09-16T03:30:07;11.43;83.30
68276;DHT22;55106;51.438;-0.098;2022-09-16T03:32:43;11.43;83.38
68276;DHT22;55106;51.438;-0.098;2022-09-16T03:35:33;11.50;83.64
68276;DHT22;55106;51.438;-0.098;2022-09-16T03:38:03;11.54;83.34
68276;DHT22;55106;51.438;-0.098;2022-09-16T03:40:31;11.58;83.32
68276;DHT22;55106;51.438;-0.098;2022-09-16T03:42:57;11.60;83.25
68276;DHT22;55106;51.438;-0.098;2022-09-16T03:45:23;11.57;83.05
68276;DHT22;55106;51.438;-0.098;2022-09-16T03:47:50;11.55;82.94
68276;DHT22;55106;51.438;-0.098;2022-09-16T03:50:17;11.57;83.45
68276;DHT22;55106;51.438;-0.098;2022-09-16T03:52:43;11.57;83.39
68276;DHT22;55106;51.438;-0.098;2022-09-16T03:55:09;11.57;83.32
68276;DHT22;55106;51.438;-0.098;2022-09-16T03:57:35;11.55;83.13
68276;DHT22;55106;51.438;-0.098;2022-09-16T04:00:01;11.55;83.61
68276;DHT22;55106;51.438;-0.098;2022-09-16T04:02:26;11.52;83.61
68276;DHT22;55106;51.438;-0.098;2022-09-16T04:04:51;11.51;83.41
68276;DHT22;55106;51.438;-0.098;2022-09-16T04:07:18;11.52;83.55
68276;DHT22;55106;51.438;-0.098;2022-09-16T04:09:43;11.51;83.75
68276;DHT22;55106;51.438;-0.098;2022-09-16T04:12:10;11.50;83.94
68276;DHT22;55106;51.438;-0.098;2022-09-16T04:14:35;11.43;83.73
68276;DHT22;55106;51.438;-0.098;2022-09-16T04:17:01;11.43;83.59
68276;DHT22;55106;51.438;-0.098;2022-09-16T04:19:27;11.41;83.96
68276;DHT22;55106;51.438;-0.098;2022-09-16T04:21:52;11.37;84.00
68276;DHT22;55106;51.438;-0.098;2022-09-16T04:24:18;11.28;84.15
68276;DHT22;55106;51.438;-0.098;2022-09-16T04:26:44;11.27;84.70
68276;DHT22;55106;51.438;-0.098;2022-09-16T04:29:09;11.27;84.71
68276;DHT22;55106;51.438;-0.098;2022-09-16T04:31:35;11.22;84.68
68276;DHT22;55106;51.438;-0.098;2022-09-16T04:34:01;11.22;84.79
68276;DHT22;55106;51.438;-0.098;2022-09-16T04:36:27;11.22;84.77
68276;DHT22;55106;51.438;-0.098;2022-09-16T04:38:52;11.19;84.85
68276;DHT22;55106;51.438;-0.098;2022-09-16T04:41:20;11.14;84.83
68276;DHT22;55106;51.438;-0.098;2022-09-16T04:43:49;11.13;85.11
68276;DHT22;55106;51.438;-0.098;2022-09-16T04:46:14;11.13;85.28
68276;DHT22;55106;51.438;-0.098;2022-09-16T04:48:40;11.14;85.30
68276;DHT22;55106;51.438;-0.098;2022-09-16T04:51:08;11.12;85.40
68276;DHT22;55106;51.438;-0.098;2022-09-16T04:53:34;11.07;85.62
68276;DHT22;55106;51.438;-0.098;2022-09-16T04:56:07;11.04;85.35
68276;DHT22;55106;51.438;-0.098;2022-09-16T04:58:34;11.02;85.82
68276;DHT22;55106;51.438;-0.098;2022-09-16T05:01:04;10.96;86.31
68276;DHT22;55106;51.438;-0.098;2022-09-16T05:03:31;10.95;85.94
68276;DHT22;55106;51.438;-0.098;2022-09-16T05:06:06;10.86;86.40
68276;DHT22;55106;51.438;-0.098;2022-09-16T05:08:32;10.82;86.89
68276;DHT22;55106;51.438;-0.098;2022-09-16T05:11:04;10.72;87.22
68276;DHT22;55106;51.438;-0.098;2022-09-16T05:13:30;10.69;87.35
68276;DHT22;55106;51.438;-0.098;2022-09-16T05:16:00;10.66;87.46
68276;DHT22;55106;51.438;-0.098;2022-09-16T05:18:25;10.66;87.34
68276;DHT22;55106;51.438;-0.098;2022-09-16T05:20:56;10.65;87.36
68276;DHT22;55106;51.438;-0.098;2022-09-16T05:23:22;10.58;87.93
68276;DHT22;55106;51.438;-0.098;2022-09-16T05:25:47;10.44;88.16
68276;DHT22;55106;51.438;-0.098;2022-09-16T05:28:12;10.37;88.38
68276;DHT22;55106;51.438;-0.098;2022-09-16T05:30:38;10.31;88.95
68276;DHT22;55106;51.438;-0.098;2022-09-16T05:33:03;10.24;89.42
68276;DHT22;55106;51.438;-0.098;2022-09-16T05:35:28;10.20;89.52
68276;DHT22;55106;51.438;-0.098;2022-09-16T05:37:54;10.18;89.76
68276;DHT22;55106;51.438;-0.098;2022-09-16T05:40:19;10.17;89.69
68276;DHT22;55106;51.438;-0.098;2022-09-16T05:42:47;10.18;89.81
68276;DHT22;55106;51.438;-0.098;2022-09-16T05:45:13;10.22;89.89
68276;DHT22;55106;51.438;-0.098;2022-09-16T05:47:39;10.24;89.63
68276;DHT22;55106;51.438;-0.098;2022-09-16T05:50:04;10.28;89.46
68276;DHT22;55106;51.438;-0.098;2022-09-16T05:52:31;10.35;89.64
68276;DHT22;55106;51.438;-0.098;2022-09-16T05:54:56;10.38;89.19
68276;DHT22;55106;51.438;-0.098;2022-09-16T05:57:22;10.45;89.15
68276;DHT22;55106;51.438;-0.098;2022-09-16T05:59:48;10.49;88.67
68276;DHT22;55106;51.438;-0.098;2022-09-16T06:02:13;10.58;88.73
68276;DHT22;55106;51.438;-0.098;2022-09-16T06:04:38;10.58;88.55
68276;DHT22;55106;51.438;-0.098;2022-09-16T06:07:04;10.59;88.44
68276;DHT22;55106;51.438;-0.098;2022-09-16T06:09:31;10.58;88.45
68276;DHT22;55106;51.438;-0.098;2022-09-16T06:11:56;10.59;88.64
68276;DHT22;55106;51.438;-0.098;2022-09-16T06:14:22;10.56;88.54
68276;DHT22;55106;51.438;-0.098;2022-09-16T06:16:48;10.55;88.92
68276;DHT22;55106;51.438;-0.098;2022-09-16T06:19:15;10.55;88.95
68276;DHT22;55106;51.438;-0.098;2022-09-16T06:21:43;10.51;89.12
68276;DHT22;55106;51.438;-0.098;2022-09-16T06:24:10;10.56;89.36
68276;DHT22;55106;51.438;-0.098;2022-09-16T06:26:37;10.56;89.76
68276;DHT22;55106;51.438;-0.098;2022-09-16T06:29:04;10.54;89.13
68276;DHT22;55106;51.438;-0.098;2022-09-16T06:31:30;10.55;88.96
68276;DHT22;55106;51.438;-0.098;2022-09-16T06:33:57;10.56;89.23
68276;DHT22;55106;51.438;-0.098;2022-09-16T06:36:28;10.62;89.51
68276;DHT22;55106;51.438;-0.098;2022-09-16T06:38:54;10.69;89.07
68276;DHT22;55106;51.438;-0.098;2022-09-16T06:41:20;10.79;89.09
68276;DHT22;55106;51.438;-0.098;2022-09-16T06:43:47;10.93;88.89
68276;DHT22;55106;51.438;-0.098;2022-09-16T06:46:15;11.07;88.33
68276;DHT22;55106;51.438;-0.098;2022-09-16T06:48:42;11.28;87.62
68276;DHT22;55106;51.438;-0.098;2022-09-16T06:51:10;11.45;87.06
68276;DHT22;55106;51.438;-0.098;2022-09-16T06:53:35;11.60;86.54
68276;DHT22;55106;51.438;-0.098;2022-09-16T06:56:06;11.75;85.54
68276;DHT22;55106;51.438;-0.098;2022-09-16T06:58:33;12.37;83.55
68276;DHT22;55106;51.438;-0.098;2022-09-16T07:01:09;12.78;81.93
68276;DHT22;55106;51.438;-0.098;2022-09-16T07:03:40;13.53;80.40
68276;DHT22;55106;51.438;-0.098;2022-09-16T07:06:07;13.52;77.99
68276;DHT22;55106;51.438;-0.098;2022-09-16T07:08:33;13.39;78.63
68276;DHT22;55106;51.438;-0.098;2022-09-16T07:11:04;13.12;79.10
68276;DHT22;55106;51.438;-0.098;2022-09-16T07:13:31;12.84;79.97
68276;DHT22;55106;51.438;-0.098;2022-09-16T07:16:03;12.67;80.61
68276;DHT22;55106;51.438;-0.098;2022-09-16T07:18:29;12.77;80.65
68276;DHT22;55106;51.438;-0.098;2022-09-16T07:23:31;13.04;80.61
68276;DHT22;55106;51.438;-0.098;2022-09-16T07:26:18;13.25;80.05
68276;DHT22;55106;51.438;-0.098;2022-09-16T07:28:46;13.22;79.00
68276;DHT22;55106;51.438;-0.098;2022-09-16T07:31:16;13.12;78.63
68276;DHT22;55106;51.438;-0.098;2022-09-16T07:33:45;13.27;78.67
68276;DHT22;55106;51.438;-0.098;2022-09-16T07:36:13;13.44;78.68
68276;DHT22;55106;51.438;-0.098;2022-09-16T07:38:39;13.35;78.23
68276;DHT22;55106;51.438;-0.098;2022-09-16T07:43:37;13.30;78.07
68276;DHT22;55106;51.438;-0.098;2022-09-16T07:46:03;13.32;78.29
68276;DHT22;55106;51.438;-0.098;2022-09-16T07:48:30;13.25;78.99
68276;DHT22;55106;51.438;-0.098;2022-09-16T07:51:00;13.18;78.81
68276;DHT22;55106;51.438;-0.098;2022-09-16T07:53:27;13.20;79.05
68276;DHT22;55106;51.438;-0.098;2022-09-16T07:55:55;13.26;78.44
68276;DHT22;55106;51.438;-0.098;2022-09-16T07:58:21;13.36;78.37
68276;DHT22;55106;51.438;-0.098;2022-09-16T08:00:47;13.57;77.75
68276;DHT22;55106;51.438;-0.098;2022-09-16T08:03:13;13.75;76.75
68276;DHT22;55106;51.438;-0.098;2022-09-16T08:05:39;13.83;76.13
68276;DHT22;55106;51.438;-0.098;2022-09-16T08:08:04;14.08;75.35
68276;DHT22;55106;51.438;-0.098;2022-09-16T08:10:30;14.25;74.35
68276;DHT22;55106;51.438;-0.098;2022-09-16T08:12:55;14.46;74.04
68276;DHT22;55106;51.438;-0.098;2022-09-16T08:15:20;14.53;71.49
68276;DHT22;55106;51.438;-0.098;2022-09-16T08:17:46;14.62;72.68
68276;DHT22;55106;51.438;-0.098;2022-09-16T08:20:11;14.87;71.99
68276;DHT22;55106;51.438;-0.098;2022-09-16T08:22:37;14.93;70.74
68276;DHT22;55106;51.438;-0.098;2022-09-16T08:25:02;14.90;69.37
68276;DHT22;55106;51.438;-0.098;2022-09-16T08:27:28;14.72;69.09
68276;DHT22;55106;51.438;-0.098;2022-09-16T08:29:53;14.97;68.81
68276;DHT22;55106;51.438;-0.098;2022-09-16T08:32:19;14.94;67.97
68276;DHT22;55106;51.438;-0.098;2022-09-16T08:34:44;15.04;67.60
68276;DHT22;55106;51.438;-0.098;2022-09-16T08:37:09;15.38;66.35
68276;DHT22;55106;51.438;-0.098;2022-09-16T08:39:35;15.34;66.60
68276;DHT22;55106;51.438;-0.098;2022-09-16T08:45:18;15.20;67.48
68276;DHT22;55106;51.438;-0.098;2022-09-16T08:47:57;15.58;66.82
68276;DHT22;55106;51.438;-0.098;2022-09-16T08:50:30;15.61;66.74
68276;DHT22;55106;51.438;-0.098;2022-09-16T08:52:59;16.10;65.25
68276;DHT22;55106;51.438;-0.098;2022-09-16T08:55:29;16.80;63.72
68276;DHT22;55106;51.438;-0.098;2022-09-16T09:00:25;17.53;61.12
68276;DHT22;55106;51.438;-0.098;2022-09-16T09:06:10;21.04;52.28
68276;DHT22;55106;51.438;-0.098;2022-09-16T09:11:37;19.73;53.13
68276;DHT22;55106;51.438;-0.098;2022-09-16T09:27:41;20.79;53.37
68276;DHT22;55106;51.438;-0.098;2022-09-16T09:30:24;20.14;54.90
68276;DHT22;55106;51.438;-0.098;2022-09-16T09:41:22;18.60;59.17
68276;DHT22;55106;51.438;-0.098;2022-09-16T09:43:56;17.88;60.62
68276;DHT22;55106;51.438;-0.098;2022-09-16T09:46:31;18.03;58.97
68276;DHT22;55106;51.438;-0.098;2022-09-16T09:56:52;18.65;56.98
68276;DHT22;55106;51.438;-0.098;2022-09-16T09:59:46;18.46;56.68
68276;DHT22;55106;51.438;-0.098;2022-09-16T10:02:16;17.05;59.77
68276;DHT22;55106;51.438;-0.098;2022-09-16T10:04:42;17.81;59.05
68276;DHT22;55106;51.438;-0.098;2022-09-16T10:07:08;18.21;56.67
68276;DHT22;55106;51.438;-0.098;2022-09-16T10:09:35;18.30;56.40
68276;DHT22;55106;51.438;-0.098;2022-09-16T10:12:02;18.22;55.65
68276;DHT22;55106;51.438;-0.098;2022-09-16T10:16:56;17.78;56.59
68276;DHT22;55106;51.438;-0.098;2022-09-16T10:19:25;18.87;54.48
68276;DHT22;55106;51.438;-0.098;2022-09-16T10:24:38;21.72;47.27
68276;DHT22;55106;51.438;-0.098;2022-09-16T10:29:45;22.64;45.77
68276;DHT22;55106;51.438;-0.098;2022-09-16T10:32:16;21.96;46.67
68276;DHT22;55106;51.438;-0.098;2022-09-16T10:34:43;23.74;42.52
68276;DHT22;55106;51.438;-0.098;2022-09-16T10:39:37;20.87;47.54
68276;DHT22;55106;51.438;-0.098;2022-09-16T10:42:14;20.00;49.41
68276;DHT22;55106;51.438;-0.098;2022-09-16T10:44:41;18.84;51.83
68276;DHT22;55106;51.438;-0.098;2022-09-16T10:47:19;19.26;52.79
68276;DHT22;55106;51.438;-0.098;2022-09-16T10:49:51;18.80;51.33
68276;DHT22;55106;51.438;-0.098;2022-09-16T10:52:22;19.62;49.80
68276;DHT22;55106;51.438;-0.098;2022-09-16T10:54:48;19.33;49.01
68276;DHT22;55106;51.438;-0.098;2022-09-16T10:57:40;19.49;52.78
68276;DHT22;55106;51.438;-0.098;2022-09-16T11:06:10;20.52;47.67
68276;DHT22;55106;51.438;-0.098;2022-09-16T11:08:52;19.73;49.45
68276;DHT22;55106;51.438;-0.098;2022-09-16T11:20:39;17.91;53.52
68276;DHT22;55106;51.438;-0.098;2022-09-16T11:23:12;17.47;54.55
68276;DHT22;55106;51.438;-0.098;2022-09-16T11:26:14;17.47;54.10
68276;DHT22;55106;51.438;-0.098;2022-09-16T11:34:31;17.74;51.93
68276;DHT22;55106;51.438;-0.098;2022-09-16T11:37:24;17.30;51.95
68276;DHT22;55106;51.438;-0.098;2022-09-16T11:42:42;19.46;51.80
68276;DHT22;55106;51.438;-0.098;2022-09-16T11:51:02;21.75;44.43
68276;DHT22;55106;51.438;-0.098;2022-09-16T11:58:54;18.83;47.29
68276;DHT22;55106;51.438;-0.098;2022-09-16T12:04:06;18.03;48.43
68276;DHT22;55106;51.438;-0.098;2022-09-16T12:06:41;18.26;47.38
68276;DHT22;55106;51.438;-0.098;2022-09-16T12:09:19;18.17;49.17
68276;DHT22;55106;51.438;-0.098;2022-09-16T12:11:54;17.68;48.96
68276;DHT22;55106;51.438;-0.098;2022-09-16T12:14:28;17.43;48.81
68276;DHT22;55106;51.438;-0.098;2022-09-16T12:17:02;17.75;49.24
68276;DHT22;55106;51.438;-0.098;2022-09-16T12:22:10;17.10;49.98
68276;DHT22;55106;51.438;-0.098;2022-09-16T12:27:37;16.44;51.62
68276;DHT22;55106;51.438;-0.098;2022-09-16T12:30:16;16.30;52.64
68276;DHT22;55106;51.438;-0.098;2022-09-16T12:35:23;16.96;50.52
68276;DHT22;55106;51.438;-0.098;2022-09-16T12:37:52;17.63;51.36
68276;DHT22;55106;51.438;-0.098;2022-09-16T12:40:21;17.74;49.14
68276;DHT22;55106;51.438;-0.098;2022-09-16T12:43:28;17.27;47.77
68276;DHT22;55106;51.438;-0.098;2022-09-16T12:46:01;16.85;49.37
68276;DHT22;55106;51.438;-0.098;2022-09-16T12:48:56;16.85;50.72
68276;DHT22;55106;51.438;-0.098;2022-09-16T13:01:55;17.40;46.85
68276;DHT22;55106;51.438;-0.098;2022-09-16T13:04:47;17.64;47.52
68276;DHT22;55106;51.438;-0.098;2022-09-16T13:07:21;17.99;47.67
68276;DHT22;55106;51.438;-0.098;2022-09-16T13:09:47;18.25;47.65
68276;DHT22;55106;51.438;-0.098;2022-09-16T13:12:20;17.84;47.94
68276;DHT22;55106;51.438;-0.098;2022-09-16T13:14:53;17.44;48.68
68276;DHT22;55106;51.438;-0.098;2022-09-16T13:17:33;17.12;48.35
68276;DHT22;55106;51.438;-0.098;2022-09-16T13:20:15;17.05;48.38
68276;DHT22;55106;51.438;-0.098;2022-09-16T13:25:52;16.96;50.21
68276;DHT22;55106;51.438;-0.098;2022-09-16T13:28:41;17.16;48.31
68276;DHT22;55106;51.438;-0.098;2022-09-16T13:33:41;17.78;47.95
68276;DHT22;55106;51.438;-0.098;2022-09-16T13:38:39;17.79;46.49
68276;DHT22;55106;51.438;-0.098;2022-09-16T13:41:05;17.47;46.63
68276;DHT22;55106;51.438;-0.098;2022-09-16T13:43:47;17.26;46.60
68276;DHT22;55106;51.438;-0.098;2022-09-16T13:46:35;17.06;47.50
68276;DHT22;55106;51.438;-0.098;2022-09-16T13:51:43;16.68;48.35
68276;DHT22;55106;51.438;-0.098;2022-09-16T13:54:40;16.83;49.44
68276;DHT22;55106;51.438;-0.098;2022-09-16T14:02:24;16.65;47.69
68276;DHT22;55106;51.438;-0.098;2022-09-16T14:05:11;16.52;48.30
68276;DHT22;55106;51.438;-0.098;2022-09-16T14:10:17;16.62;50.29
68276;DHT22;55106;51.438;-0.098;2022-09-16T14:13:02;16.83;48.87
68276;DHT22;55106;51.438;-0.098;2022-09-16T14:15:38;17.09;47.86
68276;DHT22;55106;51.438;-0.098;2022-09-16T14:18:05;17.09;47.59
68276;DHT22;55106;51.438;-0.098;2022-09-16T14:20:32;17.03;48.85
68276;DHT22;55106;51.438;-0.098;2022-09-16T14:23:02;16.93;51.34
68276;DHT22;55106;51.438;-0.098;2022-09-16T14:25:34;16.83;49.29
68276;DHT22;55106;51.438;-0.098;2022-09-16T14:28:23;16.57;48.69
68276;DHT22;55106;51.438;-0.098;2022-09-16T14:35:52;16.41;48.95
68276;DHT22;55106;51.438;-0.098;2022-09-16T14:38:20;16.31;48.90
68276;DHT22;55106;51.438;-0.098;2022-09-16T14:40:46;16.30;48.44
68276;DHT22;55106;51.438;-0.098;2022-09-16T14:43:15;16.27;48.60
68276;DHT22;55106;51.438;-0.098;2022-09-16T14:45:45;16.21;47.53
68276;DHT22;55106;51.438;-0.098;2022-09-16T14:48:13;16.27;47.29
68276;DHT22;55106;51.438;-0.098;2022-09-16T14:50:43;16.42;48.27
68276;DHT22;55106;51.438;-0.098;2022-09-16T14:55:54;16.75;47.58
68276;DHT22;55106;51.438;-0.098;2022-09-16T14:58:21;16.72;44.86
68276;DHT22;55106;51.438;-0.098;2022-09-16T15:01:10;16.47;45.15
68276;DHT22;55106;51.438;-0.098;2022-09-16T15:06:18;16.18;46.56
68276;DHT22;55106;51.438;-0.098;2022-09-16T15:11:20;16.06;48.39
68276;DHT22;55106;51.438;-0.098;2022-09-16T15:13:46;15.97;48.27
68276;DHT22;55106;51.438;-0.098;2022-09-16T15:16:18;15.97;49.49
68276;DHT22;55106;51.438;-0.098;2022-09-16T15:18:57;15.99;48.65
68276;DHT22;55106;51.438;-0.098;2022-09-16T15:21:25;15.99;47.16
68276;DHT22;55106;51.438;-0.098;2022-09-16T15:23:53;16.02;46.34
68276;DHT22;55106;51.438;-0.098;2022-09-16T15:26:21;15.93;46.38
68276;DHT22;55106;51.438;-0.098;2022-09-16T15:31:35;15.72;48.01
68276;DHT22;55106;51.438;-0.098;2022-09-16T15:34:23;15.86;48.28
68276;DHT22;55106;51.438;-0.098;2022-09-16T15:36:50;16.03;48.75
68276;DHT22;55106;51.438;-0.098;2022-09-16T15:39:36;16.11;47.84
68276;DHT22;55106;51.438;-0.098;2022-09-16T15:42:11;16.17;46.94
68276;DHT22;55106;51.438;-0.098;2022-09-16T15:44:45;16.23;46.40
68276;DHT22;55106;51.438;-0.098;2022-09-16T15:47:17;16.17;45.56
68276;DHT22;55106;51.438;-0.098;2022-09-16T15:49:44;16.07;45.55
68276;DHT22;55106;51.438;-0.098;2022-09-16T15:52:10;15.96;45.42
68276;DHT22;55106;51.438;-0.098;2022-09-16T15:54:49;15.79;46.09
68276;DHT22;55106;51.438;-0.098;2022-09-16T15:57:30;15.67;46.14
68276;DHT22;55106;51.438;-0.098;2022-09-16T16:02:42;15.54;48.95
68276;DHT22;55106;51.438;-0.098;2022-09-16T16:05:13;15.48;47.45
68276;DHT22;55106;51.438;-0.098;2022-09-16T16:07:42;15.44;49.23
68276;DHT22;55106;51.438;-0.098;2022-09-16T16:12:38;15.39;48.76
68276;DHT22;55106;51.438;-0.098;2022-09-16T16:15:03;15.36;47.89
68276;DHT22;55106;51.438;-0.098;2022-09-16T16:17:30;15.41;47.66
68276;DHT22;55106;51.438;-0.098;2022-09-16T16:19:56;15.39;48.12
68276;DHT22;55106;51.438;-0.098;2022-09-16T16:22:21;15.39;48.43
68276;DHT22;55106;51.438;-0.098;2022-09-16T16:24:47;15.41;48.27
68276;DHT22;55106;51.438;-0.098;2022-09-16T16:27:12;15.36;47.95
68276;DHT22;55106;51.438;-0.098;2022-09-16T16:29:37;15.36;48.29
68276;DHT22;55106;51.438;-0.098;2022-09-16T16:32:10;15.35;49.05
68276;DHT22;55106;51.438;-0.098;2022-09-16T16:34:40;15.34;48.32
68276;DHT22;55106;51.438;-0.098;2022-09-16T16:37:07;15.32;47.10
68276;DHT22;55106;51.438;-0.098;2022-09-16T16:39:33;15.32;47.84
68276;DHT22;55106;51.438;-0.098;2022-09-16T16:41:59;15.35;48.80
68276;DHT22;55106;51.438;-0.098;2022-09-16T16:44:25;15.41;49.38
68276;DHT22;55106;51.438;-0.098;2022-09-16T16:46:51;15.41;48.97
68276;DHT22;55106;51.438;-0.098;2022-09-16T16:49:17;15.42;49.73
68276;DHT22;55106;51.438;-0.098;2022-09-16T16:51:43;15.52;49.94
68276;DHT22;55106;51.438;-0.098;2022-09-16T16:54:10;15.56;50.60
68276;DHT22;55106;51.438;-0.098;2022-09-16T16:56:36;15.48;49.06
68276;DHT22;55106;51.438;-0.098;2022-09-16T16:59:05;15.39;50.11
68276;DHT22;55106;51.438;-0.098;2022-09-16T17:01:30;15.27;48.83
68276;DHT22;55106;51.438;-0.098;2022-09-16T17:03:56;15.11;49.39
68276;DHT22;55106;51.438;-0.098;2022-09-16T17:06:22;15.03;49.79
68276;DHT22;55106;51.438;-0.098;2022-09-16T17:08:47;14.94;48.55
68276;DHT22;55106;51.438;-0.098;2022-09-16T17:11:19;14.84;47.79
68276;DHT22;55106;51.438;-0.098;2022-09-16T17:13:47;14.76;47.35
68276;DHT22;55106;51.438;-0.098;2022-09-16T17:16:15;14.65;48.47
68276;DHT22;55106;51.438;-0.098;2022-09-16T17:18:42;14.50;49.47
68276;DHT22;55106;51.438;-0.098;2022-09-16T17:21:28;14.36;49.85
68276;DHT22;55106;51.438;-0.098;2022-09-16T17:23:54;14.33;48.96
68276;DHT22;55106;51.438;-0.098;2022-09-16T17:26:20;14.31;49.40
68276;DHT22;55106;51.438;-0.098;2022-09-16T17:28:47;14.25;49.71
68276;DHT22;55106;51.438;-0.098;2022-09-16T17:33:44;14.05;51.01
68276;DHT22;55106;51.438;-0.098;2022-09-16T17:36:12;14.04;49.91
68276;DHT22;55106;51.438;-0.098;2022-09-16T17:38:38;14.04;49.90
68276;DHT22;55106;51.438;-0.098;2022-09-16T17:41:09;14.00;49.80
68276;DHT22;55106;51.438;-0.098;2022-09-16T17:43:35;13.90;50.85
68276;DHT22;55106;51.438;-0.098;2022-09-16T17:46:04;13.87;50.81
68276;DHT22;55106;51.438;-0.098;2022-09-16T17:48:30;13.84;50.58
68276;DHT22;55106;51.438;-0.098;2022-09-16T17:50:56;13.77;51.05
68276;DHT22;55106;51.438;-0.098;2022-09-16T17:53:22;13.75;51.16
68276;DHT22;55106;51.438;-0.098;2022-09-16T17:55:48;13.67;51.91
68276;DHT22;55106;51.438;-0.098;2022-09-16T17:58:14;13.54;51.85
68276;DHT22;55106;51.438;-0.098;2022-09-16T18:00:40;13.50;52.92
68276;DHT22;55106;51.438;-0.098;2022-09-16T18:03:06;13.44;51.95
68276;DHT22;55106;51.438;-0.098;2022-09-16T18:05:34;13.38;52.57
68276;DHT22;55106;51.438;-0.098;2022-09-16T18:08:00;13.30;52.58
68276;DHT22;55106;51.438;-0.098;2022-09-16T18:10:25;13.29;53.13
68276;DHT22;55106;51.438;-0.098;2022-09-16T18:12:51;13.25;53.34
68276;DHT22;55106;51.438;-0.098;2022-09-16T18:15:18;13.27;53.07
68276;DHT22;55106;51.438;-0.098;2022-09-16T18:17:44;13.14;54.18
68276;DHT22;55106;51.438;-0.098;2022-09-16T18:20:09;12.99;55.58
68276;DHT22;55106;51.438;-0.098;2022-09-16T18:22:36;12.96;53.97
68276;DHT22;55106;51.438;-0.098;2022-09-16T18:25:02;12.92;54.18
68276;DHT22;55106;51.438;-0.098;2022-09-16T18:27:28;12.92;54.32
68276;DHT22;55106;51.438;-0.098;2022-09-16T18:29:54;12.83;54.18
68276;DHT22;55106;51.438;-0.098;2022-09-16T18:32:19;12.89;54.50
68276;DHT22;55106;51.438;-0.098;2022-09-16T18:34:45;12.84;54.03
68276;DHT22;55106;51.438;-0.098;2022-09-16T18:37:10;12.83;54.49
68276;DHT22;55106;51.438;-0.098;2022-09-16T18:39:36;12.78;54.54
68276;DHT22;55106;51.438;-0.098;2022-09-16T18:42:01;12.77;54.44
68276;DHT22;55106;51.438;-0.098;2022-09-16T18:44:26;12.89;53.72
68276;DHT22;55106;51.438;-0.098;2022-09-16T18:46:53;12.94;53.74
68276;DHT22;55106;51.438;-0.098;2022-09-16T18:49:19;12.95;54.37